createdAt,value
2022-10-31T00:01:16.964Z,98080.16
2022-10-31T00:03:43.536Z,98074.47
2022-10-31T00:06:10.171Z,98086.31
2022-10-31T00:08:37.008Z,98079.31
2022-10-31T00:11:03.864Z,98081.38
2022-10-31T00:13:30.527Z,98081.97
2022-10-31T00:15:57.238Z,98078.50
2022-10-31T00:18:23.803Z,98076.34
2022-10-31T00:20:50.376Z,98077.06
2022-10-31T00:23:16.991Z,98068.63
2022-10-31T00:25:43.792Z,98076.25
2022-10-31T00:28:12.659Z,98075.53
2022-10-31T00:30:39.557Z,98072.75
2022-10-31T00:33:06.372Z,98072.63
2022-10-31T00:35:33.443Z,98087.97
2022-10-31T00:38:00.391Z,98083.75
2022-10-31T00:40:27.081Z,98087.88
2022-10-31T00:42:53.823Z,98089.22
2022-10-31T00:45:20.472Z,98090.56
2022-10-31T00:47:47.068Z,98085.72
2022-10-31T00:50:13.866Z,98086.34
2022-10-31T00:52:40.452Z,98087.06
2022-10-31T00:55:07.470Z,98091.88
2022-10-31T00:57:34.061Z,98089.75
2022-10-31T01:00:00.749Z,98092.53
2022-10-31T01:02:27.694Z,98085.53
2022-10-31T01:04:54.421Z,98092.41
2022-10-31T01:07:21.072Z,98098.69
2022-10-31T01:09:47.685Z,98093.75
2022-10-31T01:12:14.281Z,98096.53
2022-10-31T01:14:45.721Z,98095.09
2022-10-31T01:17:13.160Z,98092.94
2022-10-31T01:19:40.280Z,98088.09
2022-10-31T01:22:07.399Z,98104.03
2022-10-31T01:24:34.153Z,98094.28
2022-10-31T01:27:00.962Z,98097.06
2022-10-31T01:29:27.599Z,98106.75
2022-10-31T01:31:54.153Z,98100.47
2022-10-31T01:34:21.040Z,98097.69
2022-10-31T01:36:52.100Z,98099.00
2022-10-31T01:39:20.189Z,98105.19
2022-10-31T01:41:52.544Z,98103.75
2022-10-31T01:44:50.820Z,98101.59
2022-10-31T01:47:22.283Z,98100.88
2022-10-31T01:49:53.751Z,98105.09
2022-10-31T01:52:31.796Z,98098.09
2022-10-31T01:55:06.808Z,98096.66
2022-10-31T01:57:36.409Z,98097.38
2022-10-31T02:00:07.887Z,98096.66
2022-10-31T02:02:34.757Z,98091.09
2022-10-31T02:05:03.695Z,98086.16
2022-10-31T02:07:40.669Z,98085.44
2022-10-31T02:10:08.288Z,98085.44
2022-10-31T02:12:37.244Z,98086.16
2022-10-31T02:15:05.149Z,98088.84
2022-10-31T02:17:32.853Z,98090.91
2022-10-31T02:20:17.066Z,98088.84
2022-10-31T02:23:28.513Z,98084.63
2022-10-31T02:26:27.383Z,98088.03
2022-10-31T02:29:21.317Z,98091.50
2022-10-31T02:32:14.888Z,98089.38
2022-10-31T02:35:26.044Z,98089.38
2022-10-31T02:38:02.617Z,98089.25
2022-10-31T02:40:37.088Z,98089.97
2022-10-31T02:46:18.969Z,98089.16
2022-10-31T02:48:49.365Z,98092.53
2022-10-31T02:51:17.545Z,98100.13
2022-10-31T02:53:44.353Z,98097.28
2022-10-31T02:56:17.360Z,98096.53
2022-10-31T02:58:55.487Z,98101.38
2022-10-31T03:01:40.803Z,98102.72
2022-10-31T03:04:36.115Z,98103.34
2022-10-31T03:07:17.101Z,98103.94
2022-10-31T03:10:18.813Z,98105.28
2022-10-31T03:12:59.723Z,98100.25
2022-10-31T03:15:35.548Z,98099.53
2022-10-31T03:18:33.990Z,98097.38
2022-10-31T03:21:11.402Z,98095.94
2022-10-31T03:23:40.213Z,98099.34
2022-10-31T03:26:10.693Z,98098.59
2022-10-31T03:28:44.526Z,98106.22
2022-10-31T03:31:17.316Z,98101.28
2022-10-31T03:33:46.108Z,98100.56
2022-10-31T03:36:15.894Z,98101.28
2022-10-31T03:38:44.739Z,98108.19
2022-10-31T03:41:17.332Z,98105.41
2022-10-31T03:43:51.889Z,98112.28
2022-10-31T03:46:19.064Z,98113.09
2022-10-31T03:48:45.948Z,98110.66
2022-10-31T03:51:31.341Z,98104.66
2022-10-31T03:54:14.644Z,98112.59
2022-10-31T03:56:54.389Z,98112.69
2022-10-31T03:59:35.272Z,98108.81
2022-10-31T04:02:14.582Z,98111.06
2022-10-31T04:04:42.639Z,98104.16
2022-10-31T04:07:11.434Z,98108.50
2022-10-31T04:09:41.749Z,98100.25
2022-10-31T04:12:11.411Z,98110.75
2022-10-31T04:14:42.815Z,98107.34
2022-10-31T04:17:15.002Z,98103.97
2022-10-31T04:19:41.677Z,98107.44
2022-10-31T04:22:08.343Z,98110.31
2022-10-31T04:24:34.926Z,98117.22
2022-10-31T04:27:01.521Z,98122.16
2022-10-31T04:29:28.332Z,98109.72
2022-10-31T04:31:55.111Z,98114.63
2022-10-31T04:34:21.717Z,98119.59
2022-10-31T04:36:48.354Z,98119.59
2022-10-31T04:39:14.944Z,98115.47
2022-10-31T04:41:41.789Z,98112.69
2022-10-31T04:44:08.581Z,98115.47
2022-10-31T04:46:35.172Z,98111.34
2022-10-31T04:49:01.990Z,98114.13
2022-10-31T04:51:28.616Z,98118.44
2022-10-31T04:53:55.389Z,98115.84
2022-10-31T04:56:23.075Z,98116.78
2022-10-31T04:58:49.683Z,98120.47
2022-10-31T05:01:16.452Z,98120.03
2022-10-31T05:03:43.135Z,98109.75
2022-10-31T05:06:10.081Z,98121.16
2022-10-31T05:08:36.874Z,98115.09
2022-10-31T05:11:04.989Z,98114.56
2022-10-31T05:13:32.173Z,98120.31
2022-10-31T05:15:58.759Z,98118.44
2022-10-31T05:18:25.768Z,98120.69
2022-10-31T05:20:52.577Z,98121.50
2022-10-31T05:23:19.178Z,98115.31
2022-10-31T05:25:45.823Z,98118.09
2022-10-31T05:28:12.461Z,98122.28
2022-10-31T05:30:39.070Z,98114.69
2022-10-31T05:33:05.724Z,98116.13
2022-10-31T05:35:33.492Z,98121.69
2022-10-31T05:38:00.817Z,98120.38
2022-10-31T05:40:28.401Z,98126.66
2022-10-31T05:42:56.566Z,98130.13
2022-10-31T05:45:23.752Z,98129.53
2022-10-31T05:48:00.743Z,98132.38
2022-10-31T05:50:30.238Z,98129.00
2022-10-31T05:53:02.476Z,98122.63
2022-10-31T05:55:29.368Z,98128.50
2022-10-31T05:57:56.705Z,98132.69
2022-10-31T06:00:24.806Z,98133.34
2022-10-31T06:02:59.136Z,98138.91
2022-10-31T06:05:26.023Z,98131.91
2022-10-31T06:07:52.804Z,98138.06
2022-10-31T06:10:21.872Z,98131.09
2022-10-31T06:12:49.293Z,98142.84
2022-10-31T06:15:21.048Z,98140.66
2022-10-31T06:18:00.502Z,98139.84
2022-10-31T06:20:27.708Z,98136.16
2022-10-31T06:22:54.293Z,98141.00
2022-10-31T06:25:21.025Z,98139.56
2022-10-31T06:27:47.687Z,98138.75
2022-10-31T06:30:14.960Z,98145.75
2022-10-31T06:32:41.581Z,98144.19
2022-10-31T06:35:08.457Z,98151.81
2022-10-31T06:37:35.024Z,98154.53
2022-10-31T06:40:01.720Z,98139.09
2022-10-31T06:42:28.507Z,98148.03
2022-10-31T06:44:55.167Z,98152.16
2022-10-31T06:47:21.737Z,98156.88
2022-10-31T06:49:48.345Z,98155.44
2022-10-31T06:52:15.093Z,98158.88
2022-10-31T06:54:41.944Z,98163.06
2022-10-31T06:57:08.512Z,98161.72
2022-10-31T06:59:35.092Z,98170.69
2022-10-31T07:02:01.916Z,98174.09
2022-10-31T07:04:28.586Z,98177.59
2022-10-31T07:06:55.360Z,98179.03
2022-10-31T07:09:22.098Z,98172.31
2022-10-31T07:11:48.694Z,98173.97
2022-10-31T07:14:15.275Z,98170.91
2022-10-31T07:16:41.904Z,98178.84
2022-10-31T07:19:08.836Z,98175.63
2022-10-31T07:21:35.398Z,98183.44
2022-10-31T07:24:02.061Z,98180.16
2022-10-31T07:26:28.901Z,98183.63
2022-10-31T07:28:55.483Z,98176.75
2022-10-31T07:31:22.412Z,98183.63
2022-10-31T07:33:48.997Z,98175.31
2022-10-31T07:36:16.565Z,98172.53
2022-10-31T07:38:43.376Z,98179.44
2022-10-31T07:41:10.722Z,98178.72
2022-10-31T07:43:37.527Z,98170.38
2022-10-31T07:46:04.133Z,98171.72
2022-10-31T07:48:30.725Z,98172.31
2022-10-31T07:50:57.341Z,98167.41
2022-10-31T07:53:24.048Z,98163.19
2022-10-31T07:55:50.682Z,98164.50
2022-10-31T07:58:18.058Z,98168.00
2022-10-31T08:00:46.555Z,98168.63
2022-10-31T08:03:15.482Z,98166.50
2022-10-31T08:05:42.419Z,98162.25
2022-10-31T08:08:09.804Z,98166.38
2022-10-31T08:10:37.224Z,98166.28
2022-10-31T08:13:06.690Z,98157.97
2022-10-31T08:15:35.259Z,98157.22
2022-10-31T08:18:03.199Z,98162.06
2022-10-31T08:20:30.428Z,98153.19
2022-10-31T08:23:02.033Z,98161.72
2022-10-31T08:25:33.868Z,98148.78
2022-10-31T08:28:04.729Z,98153.81
2022-10-31T08:30:33.927Z,98149.75
2022-10-31T08:33:11.754Z,98143.06
2022-10-31T08:35:38.465Z,98141.31
2022-10-31T08:38:05.522Z,98141.50
2022-10-31T08:40:34.029Z,98145.81
2022-10-31T08:43:15.072Z,98139.63
2022-10-31T08:45:42.319Z,98130.63
2022-10-31T08:48:14.300Z,98142.63
2022-10-31T08:50:41.486Z,98136.34
2022-10-31T08:53:12.352Z,98139.72
2022-10-31T08:55:40.419Z,98137.66
2022-10-31T08:58:10.459Z,98133.41
2022-10-31T09:00:37.436Z,98130.56
2022-10-31T09:03:13.068Z,98129.13
2022-10-31T09:05:40.392Z,98123.47
2022-10-31T09:08:13.082Z,98133.88
2022-10-31T09:10:43.359Z,98124.09
2022-10-31T09:13:15.682Z,98126.88
2022-10-31T09:15:44.753Z,98113.59
2022-10-31T09:18:12.761Z,98111.50
2022-10-31T09:20:41.001Z,98113.59
2022-10-31T09:23:11.185Z,98110.81
2022-10-31T09:25:38.620Z,98112.25
2022-10-31T09:28:06.970Z,98103.91
2022-10-31T09:30:35.798Z,98108.13
2022-10-31T09:33:05.260Z,98106.78
2022-10-31T09:35:32.149Z,98099.78
2022-10-31T09:38:01.163Z,98100.50
2022-10-31T09:40:43.864Z,98095.66
2022-10-31T09:43:48.845Z,98093.59
2022-10-31T09:46:36.979Z,98093.69
2022-10-31T09:50:01.864Z,98087.41
2022-10-31T09:52:35.216Z,98085.25
2022-10-31T09:55:10.243Z,98087.94
2022-10-31T09:57:38.141Z,98085.78
2022-10-31T10:00:06.892Z,98075.91
2022-10-31T10:02:41.780Z,98080.03
2022-10-31T10:05:15.716Z,98079.94
2022-10-31T10:07:54.949Z,98081.28
2022-10-31T10:10:56.012Z,98077.78
2022-10-31T10:13:52.893Z,98078.41
2022-10-31T10:16:46.638Z,98068.53
2022-10-31T10:25:52.659Z,98059.38
2022-10-31T10:28:40.883Z,98060.81
2022-10-31T10:31:20.734Z,98056.59
2022-10-31T10:34:07.114Z,98056.59
2022-10-31T10:39:49.126Z,98053.81
2022-10-31T10:42:35.548Z,98047.53
2022-10-31T10:45:34.548Z,98041.97
2022-10-31T10:48:10.542Z,98046.19
2022-10-31T10:50:43.320Z,98036.53
2022-10-31T10:53:33.606Z,98034.47
2022-10-31T10:59:39.388Z,98024.66
2022-10-31T11:02:18.553Z,98019.84
2022-10-31T11:04:49.945Z,98018.50
2022-10-31T11:07:16.623Z,98012.22
2022-10-31T11:09:43.426Z,98013.66
2022-10-31T11:12:43.984Z,98003.16
2022-10-31T11:15:24.453Z,98001.09
2022-10-31T11:17:53.580Z,97999.66
2022-10-31T11:20:36.985Z,97992.75
2022-10-31T11:23:16.685Z,97996.25
2022-10-31T11:25:50.828Z,97989.28
2022-10-31T11:28:17.670Z,97993.47
2022-10-31T11:30:56.944Z,97986.50
2022-10-31T11:33:33.994Z,97981.66
2022-10-31T11:36:03.218Z,97977.41
2022-10-31T11:38:36.521Z,97970.41
2022-10-31T11:41:37.493Z,97970.41
2022-10-31T11:44:11.836Z,97964.16
2022-10-31T11:46:45.723Z,97960.03
2022-10-31T11:49:37.005Z,97953.75
2022-10-31T11:52:15.243Z,97953.75
2022-10-31T11:55:03.312Z,97952.31
2022-10-31T11:57:54.772Z,97952.31
2022-10-31T12:00:42.861Z,97947.47
2022-10-31T12:03:52.597Z,97948.19
2022-10-31T12:06:39.784Z,97940.56
2022-10-31T12:09:36.527Z,97941.19
2022-10-31T12:12:48.690Z,97928.00
2022-10-31T12:15:32.429Z,97930.97
2022-10-31T12:18:38.011Z,97917.53
2022-10-31T12:21:58.533Z,97911.59
2022-10-31T12:24:55.238Z,97908.31
2022-10-31T12:28:20.609Z,97902.84
2022-10-31T12:31:12.141Z,97894.56
2022-10-31T12:34:00.892Z,97893.97
2022-10-31T12:37:16.927Z,97894.56
2022-10-31T12:40:07.391Z,97893.22
2022-10-31T12:43:11.009Z,97888.47
2022-10-31T12:45:57.264Z,97888.56
2022-10-31T12:49:10.585Z,97885.16
2022-10-31T13:14:36.585Z,97845.94
2022-10-31T13:17:03.684Z,97843.09
2022-10-31T13:19:39.535Z,97837.53
2022-10-31T13:22:30.350Z,97836.09
2022-10-31T13:25:14.803Z,97835.38
2022-10-31T13:27:54.051Z,97840.22
2022-10-31T13:30:23.475Z,97834.06
2022-10-31T13:33:10.429Z,97836.31
2022-10-31T13:35:52.366Z,97830.31
2022-10-31T13:38:31.980Z,97832.38
2022-10-31T13:41:21.683Z,97831.88
2022-10-31T13:44:03.741Z,97826.84
2022-10-31T13:46:40.070Z,97821.41
2022-10-31T13:49:38.216Z,97819.03
2022-10-31T13:52:17.143Z,97819.31
2022-10-31T13:54:48.859Z,97817.84
2022-10-31T13:57:45.968Z,97820.59
2022-10-31T14:00:26.967Z,97825.00
2022-10-31T14:02:57.576Z,97816.47
2022-10-31T14:05:30.968Z,97814.81
2022-10-31T14:08:00.451Z,97818.38
2022-10-31T14:10:30.339Z,97814.41
2022-10-31T14:13:46.347Z,97810.56
2022-10-31T14:16:27.138Z,97815.56
2022-10-31T14:19:16.075Z,97815.56
2022-10-31T14:21:44.582Z,97806.53
2022-10-31T14:24:44.893Z,97809.69
2022-10-31T14:27:47.356Z,97807.31
2022-10-31T14:30:20.007Z,97811.53
2022-10-31T14:33:01.593Z,97800.22
2022-10-31T14:35:43.933Z,97801.34
2022-10-31T14:38:37.788Z,97798.34
2022-10-31T14:41:56.519Z,97792.72
2022-10-31T14:44:57.325Z,97790.28
2022-10-31T14:47:56.857Z,97789.53
2022-10-31T14:50:50.516Z,97795.06
2022-10-31T14:53:27.551Z,97795.97
2022-10-31T14:55:56.657Z,97791.44
2022-10-31T14:58:47.186Z,97795.19
2022-10-31T15:01:27.703Z,97790.28
2022-10-31T15:07:21.847Z,97782.06
2022-10-31T15:10:07.183Z,97785.69
2022-10-31T15:12:38.544Z,97783.56
2022-10-31T15:15:23.347Z,97781.31
2022-10-31T15:17:56.733Z,97794.91
2022-10-31T15:20:27.310Z,97779.50
2022-10-31T15:22:57.092Z,97787.69
2022-10-31T15:25:25.842Z,97779.16
2022-10-31T15:27:53.765Z,97785.88
2022-10-31T15:30:23.527Z,97781.47
2022-10-31T15:32:58.354Z,97773.06
2022-10-31T15:35:30.813Z,97772.81
2022-10-31T15:37:59.413Z,97781.97
2022-10-31T15:40:27.877Z,97783.78
2022-10-31T15:43:04.997Z,97778.13
2022-10-31T15:45:32.571Z,97770.53
2022-10-31T15:48:05.963Z,97771.88
2022-10-31T15:50:38.669Z,97769.97
2022-10-31T15:53:07.211Z,97780.06
2022-10-31T15:55:39.640Z,97774.19
2022-10-31T15:58:12.788Z,97783.91
2022-10-31T16:00:39.641Z,97777.44
2022-10-31T16:03:35.458Z,97774.53
2022-10-31T16:06:05.103Z,97776.47
2022-10-31T16:08:36.842Z,97772.16
2022-10-31T16:11:44.006Z,97781.16
2022-10-31T16:14:34.650Z,97779.00
2022-10-31T16:17:02.472Z,97780.19
2022-10-31T16:19:36.534Z,97784.28
2022-10-31T16:22:30.999Z,97791.00
2022-10-31T16:25:37.863Z,97789.44
2022-10-31T16:28:17.199Z,97792.81
2022-10-31T16:30:49.959Z,97787.75
2022-10-31T16:33:48.913Z,97784.16
2022-10-31T16:36:35.914Z,97783.97
2022-10-31T16:39:03.790Z,97776.50
2022-10-31T16:41:30.477Z,97780.63
2022-10-31T16:43:57.179Z,97781.44
2022-10-31T16:46:26.477Z,97785.97
2022-10-31T16:48:53.618Z,97786.81
2022-10-31T16:51:20.855Z,97777.69
2022-10-31T16:53:47.514Z,97783.09
2022-10-31T16:56:23.565Z,97787.03
2022-10-31T16:58:50.176Z,97781.16
2022-10-31T17:01:17.219Z,97779.41
2022-10-31T17:03:43.892Z,97783.81
2022-10-31T17:06:14.591Z,97786.78
2022-10-31T17:08:41.787Z,97793.34
2022-10-31T17:11:18.729Z,97788.00
2022-10-31T17:13:45.582Z,97783.28
2022-10-31T17:16:14.399Z,97786.97
2022-10-31T17:18:41.558Z,97787.16
2022-10-31T17:21:17.320Z,97790.03
2022-10-31T17:23:45.032Z,97791.56
2022-10-31T17:26:11.848Z,97790.31
2022-10-31T17:28:38.519Z,97786.28
2022-10-31T17:31:06.124Z,97787.75
2022-10-31T17:33:33.743Z,97798.31
2022-10-31T17:36:02.962Z,97796.34
2022-10-31T17:38:29.761Z,97797.06
2022-10-31T17:40:56.382Z,97789.56
2022-10-31T17:43:27.048Z,97791.09
2022-10-31T17:45:53.765Z,97786.97
2022-10-31T17:48:20.399Z,97791.16
2022-10-31T17:50:47.165Z,97782.94
2022-10-31T17:53:13.751Z,97787.16
2022-10-31T17:55:40.369Z,97787.25
2022-10-31T17:58:06.949Z,97786.63
2022-10-31T18:00:34.195Z,97777.69
2022-10-31T18:03:03.372Z,97779.13
2022-10-31T18:05:30.416Z,97764.59
2022-10-31T18:07:59.592Z,97761.13
2022-10-31T18:10:30.183Z,97764.59
2022-10-31T18:12:56.761Z,97763.91
2022-10-31T18:15:23.428Z,97760.41
2022-10-31T18:17:50.016Z,97761.84
2022-10-31T18:20:16.676Z,97757.63
2022-10-31T18:22:43.369Z,97765.25
2022-10-31T18:25:10.031Z,97765.88
2022-10-31T18:27:36.778Z,97759.59
2022-10-31T18:30:03.824Z,97762.38
2022-10-31T18:32:30.424Z,97756.09
2022-10-31T18:34:57.210Z,97759.50
2022-10-31T18:37:23.832Z,97763.00
2022-10-31T18:39:50.473Z,97772.03
2022-10-31T18:42:17.038Z,97767.84
2022-10-31T18:44:43.848Z,97771.22
2022-10-31T18:47:10.777Z,97776.16
2022-10-31T18:49:37.512Z,97763.63
2022-10-31T18:52:05.582Z,97761.56
2022-10-31T18:54:33.040Z,97771.97
2022-10-31T18:56:59.628Z,97760.84
2022-10-31T18:59:26.348Z,97762.19
2022-10-31T19:01:53.311Z,97760.03
2022-10-31T19:04:20.015Z,97752.31
2022-10-31T19:06:46.615Z,97757.88
2022-10-31T19:09:13.249Z,97757.78
2022-10-31T19:11:40.101Z,97764.69
2022-10-31T19:14:13.068Z,97763.25
2022-10-31T19:16:40.027Z,97757.69
2022-10-31T19:19:07.856Z,97756.25
2022-10-31T19:21:34.469Z,97756.25
2022-10-31T19:24:01.634Z,97750.00
2022-10-31T19:26:28.588Z,97748.56
2022-10-31T19:28:56.537Z,97758.22
2022-10-31T19:31:23.214Z,97754.84
2022-10-31T19:33:49.877Z,97751.34
2022-10-31T19:36:18.792Z,97745.78
2022-10-31T19:38:47.606Z,97750.63
2022-10-31T19:41:19.847Z,97746.50
2022-10-31T19:43:46.308Z,97744.97
2022-10-31T19:46:27.680Z,97747.03
2022-10-31T19:49:05.311Z,97743.53
2022-10-31T19:51:38.101Z,97747.66
2022-10-31T19:54:04.981Z,97740.78
2022-10-31T19:56:41.197Z,97747.75
2022-10-31T19:59:11.834Z,97740.66
2022-10-31T20:01:41.773Z,97741.38
2022-10-31T20:04:11.190Z,97743.38
2022-10-31T20:06:40.266Z,97745.41
2022-10-31T20:09:16.230Z,97740.47
2022-10-31T20:11:44.727Z,97750.16
2022-10-31T20:14:14.290Z,97755.59
2022-10-31T20:16:41.225Z,97757.03
2022-10-31T20:19:08.578Z,97756.31
2022-10-31T20:21:40.613Z,97756.94
2022-10-31T20:24:09.996Z,97759.72
2022-10-31T20:26:40.509Z,97755.50
2022-10-31T20:29:07.436Z,97752.00
2022-10-31T20:31:35.943Z,97755.50
2022-10-31T20:34:02.608Z,97754.78
2022-10-31T20:36:30.947Z,97758.28
2022-10-31T20:38:58.561Z,97761.06
2022-10-31T20:41:25.356Z,97761.66
2022-10-31T20:43:55.233Z,97765.16
2022-10-31T20:46:25.810Z,97760.25
2022-10-31T20:48:52.848Z,97760.94
2022-10-31T20:51:24.820Z,97749.34
2022-10-31T20:53:53.007Z,97750.34
2022-10-31T20:56:22.051Z,97752.66
2022-10-31T20:58:49.634Z,97754.91
2022-10-31T21:01:19.210Z,97757.88
2022-10-31T21:03:46.781Z,97749.03
2022-10-31T21:06:13.735Z,97749.84
2022-10-31T21:08:43.048Z,97749.94
2022-10-31T21:11:16.355Z,97756.91
2022-10-31T21:13:46.375Z,97751.47
2022-10-31T21:16:18.437Z,97747.44
2022-10-31T21:18:46.265Z,97753.09
2022-10-31T21:21:18.557Z,97741.97
2022-10-31T21:23:45.540Z,97751.13
2022-10-31T21:26:16.155Z,97757.38
2022-10-31T21:28:43.338Z,97765.72
2022-10-31T21:31:13.865Z,97759.53
2022-10-31T21:33:41.326Z,97760.25
2022-10-31T21:36:11.376Z,97754.63
2022-10-31T21:38:38.798Z,97759.53
2022-10-31T21:41:15.729Z,97764.38
2022-10-31T21:43:45.655Z,97759.44
2022-10-31T21:46:17.653Z,97765.72
2022-10-31T21:48:45.533Z,97762.84
2022-10-31T21:51:24.097Z,97748.97
2022-10-31T21:54:09.209Z,97747.53
2022-10-31T21:56:36.277Z,97758.00
2022-10-31T21:59:03.108Z,97759.34
2022-10-31T22:01:29.901Z,97746.81
2022-10-31T22:03:57.470Z,97748.78
2022-10-31T22:06:26.616Z,97753.63
2022-10-31T22:08:54.544Z,97752.91
2022-10-31T22:11:22.912Z,97744.47
2022-10-31T22:13:50.184Z,97746.53
2022-10-31T22:16:19.098Z,97751.47
2022-10-31T22:18:46.517Z,97738.22
2022-10-31T22:21:18.877Z,97744.47
2022-10-31T22:23:56.654Z,97746.53
2022-10-31T22:26:23.717Z,97744.38
2022-10-31T22:28:59.488Z,97745.72
2022-10-31T22:31:27.125Z,97742.84
2022-10-31T22:33:53.966Z,97734.63
2022-10-31T22:36:23.413Z,97744.47
2022-10-31T22:38:50.672Z,97736.25
2022-10-31T22:41:25.550Z,97738.38
2022-10-31T22:43:52.596Z,97738.50
2022-10-31T22:46:23.319Z,97738.56
2022-10-31T22:48:58.880Z,97731.06
2022-10-31T22:51:27.993Z,97731.88
2022-10-31T22:53:56.753Z,97731.22
2022-10-31T22:56:26.471Z,97730.63
2022-10-31T22:58:53.072Z,97735.53
2022-10-31T23:01:22.234Z,97731.34
2022-10-31T23:03:50.016Z,97731.41
2022-10-31T23:06:19.416Z,97734.91
2022-10-31T23:08:46.659Z,97737.06
2022-10-31T23:11:34.526Z,97742.63
2022-10-31T23:14:09.540Z,97739.22
2022-10-31T23:16:44.696Z,97735.72
2022-10-31T23:19:15.051Z,97748.19
2022-10-31T23:22:02.377Z,97743.97
2022-10-31T23:24:37.485Z,97743.88
2022-10-31T23:27:09.874Z,97752.84
2022-10-31T23:29:56.907Z,97752.13
2022-10-31T23:32:37.558Z,97749.94
2022-10-31T23:35:09.275Z,97751.31
2022-10-31T23:37:38.500Z,97749.94
2022-10-31T23:40:08.119Z,97746.47
2022-10-31T23:42:35.334Z,97753.38
2022-10-31T23:45:01.955Z,97745.03
2022-10-31T23:47:28.545Z,97739.50
2022-10-31T23:49:55.365Z,97748.44
2022-10-31T23:52:21.957Z,97737.31
2022-10-31T23:54:48.520Z,97731.06
2022-10-31T23:57:15.809Z,97731.06
2022-10-31T23:59:42.761Z,97732.41
